Time;durP1;ratioP1;P1;durP2;ratioP2;P2;SDS_P1;SDS_P2;PMS_P1;PMS_P2;Temp;Humidity;BMP_temperature;BMP_pressure;BME280_temperature;BME280_humidity;BME280_pressure;Samples;Min_cycle;Max_cycle;Signal;HPM_P1;HPM_P2
2022/11/12 00:00:42;;;;;;;36.35;13.35;;;;;;;4.56;100.00;102837.94;5089474;28;20028;-82
2022/11/12 00:03:08;;;;;;;31.45;11.52;;;;;;;4.49;100.00;102839.88;5093725;28;20394;-83
2022/11/12 00:05:33;;;;;;;30.27;12.10;;;;;;;4.54;100.00;102846.13;5088144;28;20031;-83
2022/11/12 00:07:59;;;;;;;35.67;11.98;;;;;;;4.45;100.00;102850.84;5090536;28;20043;-82
2022/11/12 00:10:25;;;;;;;35.97;14.23;;;;;;;4.47;100.00;102833.59;5101627;28;20083;-82
2022/11/12 00:12:51;;;;;;;31.80;11.93;;;;;;;4.64;100.00;102848.59;5071699;28;20036;-83
2022/11/12 00:15:16;;;;;;;33.38;12.63;;;;;;;4.66;100.00;102846.78;5083590;28;20454;-82
2022/11/12 00:17:42;;;;;;;36.28;13.55;;;;;;;4.59;100.00;102837.84;5088339;28;20089;-82
2022/11/12 00:20:08;;;;;;;39.97;13.07;;;;;;;4.61;100.00;102838.75;5086791;28;20067;-82
2022/11/12 00:22:34;;;;;;;41.53;13.80;;;;;;;4.24;100.00;102807.84;5105390;28;20122;-84
2022/11/12 00:24:59;;;;;;;41.88;15.45;;;;;;;4.36;100.00;102833.84;5068932;28;20122;-82
2022/11/12 00:27:25;;;;;;;26.75;12.95;;;;;;;4.44;100.00;102843.63;5104016;28;20043;-83
2022/11/12 00:29:51;;;;;;;35.42;14.45;;;;;;;4.50;100.00;102838.97;5067358;28;20104;-83
2022/11/12 00:32:16;;;;;;;29.70;14.07;;;;;;;4.48;100.00;102823.66;5068677;28;20044;-82
2022/11/12 00:34:42;;;;;;;43.08;17.15;;;;;;;4.75;100.00;102833.88;5090818;28;20032;-83
2022/11/12 00:37:07;;;;;;;44.17;16.45;;;;;;;4.71;100.00;102806.88;5069217;28;20182;-83
2022/11/12 00:39:33;;;;;;;33.60;15.43;;;;;;;4.48;100.00;102816.41;5073735;28;20027;-83
2022/11/12 00:41:58;;;;;;;31.30;13.52;;;;;;;4.57;100.00;102837.88;5071237;28;20068;-83
2022/11/12 00:44:24;;;;;;;22.17;12.45;;;;;;;4.48;100.00;102840.81;5073258;28;20036;-83
2022/11/12 00:46:50;;;;;;;26.15;14.48;;;;;;;4.53;100.00;102843.44;5082873;28;20036;-83
2022/11/12 00:49:15;;;;;;;32.85;14.98;;;;;;;4.40;100.00;102842.81;5078710;28;20189;-82
2022/11/12 00:51:41;;;;;;;30.30;13.07;;;;;;;4.48;100.00;102850.78;5089811;28;20099;-82
2022/11/12 00:54:07;;;;;;;28.50;14.80;;;;;;;4.53;100.00;102843.44;5072794;28;20358;-83
2022/11/12 00:56:33;;;;;;;32.20;15.45;;;;;;;4.50;100.00;102841.66;5124529;28;20031;-82
2022/11/12 00:58:59;;;;;;;33.85;15.07;;;;;;;4.24;100.00;102821.41;5088470;28;20102;-83
2022/11/12 01:01:25;;;;;;;42.95;16.73;;;;;;;4.33;100.00;102828.47;5070088;28;20117;-84
2022/11/12 01:03:51;;;;;;;24.88;13.35;;;;;;;4.37;100.00;102838.31;5083480;28;20042;-83
2022/11/12 01:06:22;;;;;;;23.25;12.57;;;;;;;4.45;100.00;102834.56;5094652;28;20091;-83
2022/11/12 01:08:49;;;;;;;23.63;11.80;;;;;;;4.46;100.00;102836.34;5088373;28;20040;-83
2022/11/12 01:11:17;;;;;;;19.88;11.50;;;;;;;4.32;100.00;102833.94;5101857;28;20038;-82
2022/11/12 01:13:51;;;;;;;22.15;11.88;;;;;;;4.42;100.00;102830.09;5069427;28;20059;-82
2022/11/12 01:16:19;;;;;;;24.90;11.93;;;;;;;4.47;100.00;102841.72;5071968;28;20084;-82
2022/11/12 01:18:49;;;;;;;29.70;14.50;;;;;;;4.45;100.00;102830.03;5090419;28;20040;-84
2022/11/12 01:21:23;;;;;;;31.88;17.23;;;;;;;4.36;100.00;102822.06;5106804;28;20043;-83
2022/11/12 01:23:49;;;;;;;31.38;16.08;;;;;;;4.21;100.00;102801.59;5106795;28;20483;-82
2022/11/12 01:26:17;;;;;;;37.05;15.18;;;;;;;4.33;100.00;102820.34;5097516;28;20039;-84
2022/11/12 01:28:43;;;;;;;35.92;17.27;;;;;;;4.18;100.00;102788.13;5077461;28;20491;-83
2022/11/12 01:31:21;;;;;;;35.22;16.73;;;;;;;4.35;100.00;102798.63;5090079;28;20099;-84
2022/11/12 01:33:51;;;;;;;30.35;14.75;;;;;;;4.36;100.00;102800.38;5111835;28;20039;-83
2022/11/12 01:36:18;;;;;;;35.58;17.60;;;;;;;4.21;100.00;102796.19;5085784;28;20039;-83
2022/11/12 01:38:45;;;;;;;41.83;19.88;;;;;;;4.23;100.00;102795.25;5085898;28;20073;-84
2022/11/12 01:41:16;;;;;;;31.65;14.75;;;;;;;4.25;100.00;102800.63;5100082;28;20085;-83
2022/11/12 01:43:42;;;;;;;30.17;13.98;;;;;;;4.28;100.00;102800.56;5106507;28;20110;-84
2022/11/12 01:46:33;;;;;;;37.05;16.33;;;;;;;4.24;100.00;102804.25;5111604;28;20089;-83
2022/11/12 01:49:03;;;;;;;39.85;18.15;;;;;;;4.33;100.00;102795.94;5071346;28;20613;-83
2022/11/12 01:51:36;;;;;;;36.03;17.05;;;;;;;3.95;100.00;102796.72;5087051;28;20107;-84
2022/11/12 01:54:04;;;;;;;41.28;18.08;;;;;;;4.01;100.00;102805.63;5088313;28;20027;-83
2022/11/12 01:56:30;;;;;;;37.20;17.30;;;;;;;4.21;100.00;102801.59;5089517;28;20035;-84
2022/11/12 01:59:04;;;;;;;42.67;18.02;;;;;;;4.20;100.00;102806.16;5087915;28;20032;-83
2022/11/12 02:01:29;;;;;;;46.53;17.80;;;;;;;4.18;100.00;102812.50;5090170;28;20363;-83
2022/11/12 02:03:56;;;;;;;39.67;16.90;;;;;;;4.19;100.00;102804.34;5107000;28;20040;-84
2022/11/12 02:06:23;;;;;;;49.08;17.83;;;;;;;4.15;100.00;102802.66;5070426;28;20126;-83
2022/11/12 02:08:49;;;;;;;42.47;17.50;;;;;;;4.19;100.00;102801.63;5087499;28;20427;-83
2022/11/12 02:11:17;;;;;;;43.53;18.05;;;;;;;4.12;100.00;102801.81;5103401;28;20127;-83
2022/11/12 02:13:57;;;;;;;44.17;17.60;;;;;;;4.17;100.00;102813.47;5088459;28;20028;-84
2022/11/12 02:16:33;;;;;;;41.60;19.17;;;;;;;4.20;100.00;102808.84;5105068;28;20028;-82
2022/11/12 02:18:59;;;;;;;35.80;16.77;;;;;;;4.13;100.00;102812.63;5105253;28;20143;-82
2022/11/12 02:21:25;;;;;;;37.50;16.88;;;;;;;3.86;100.00;102795.97;5096884;28;20039;-82
2022/11/12 02:24:03;;;;;;;39.10;18.23;;;;;;;3.98;100.00;102815.63;5088812;28;20031;-83
2022/11/12 02:26:35;;;;;;;38.08;17.73;;;;;;;3.87;100.00;102813.16;5091771;28;20024;-84
2022/11/12 02:29:01;;;;;;;50.72;19.30;;;;;;;3.86;100.00;102814.94;5085896;28;20073;-83
2022/11/12 02:31:27;;;;;;;55.22;20.23;;;;;;;3.94;100.00;102808.50;5075556;28;20024;-81
2022/11/12 02:33:52;;;;;;;49.55;19.13;;;;;;;4.02;100.00;102825.50;5089062;28;20023;-82
2022/11/12 02:36:18;;;;;;;45.22;19.25;;;;;;;3.93;100.00;102817.53;5102331;28;20024;-83
2022/11/12 02:38:43;;;;;;;44.08;17.58;;;;;;;3.96;100.00;102815.66;5087290;28;20447;-83
2022/11/12 02:41:09;;;;;;;47.38;18.15;;;;;;;3.94;100.00;102805.78;5078940;28;20044;-84
2022/11/12 02:43:34;;;;;;;36.85;16.60;;;;;;;3.96;100.00;102803.94;5088720;28;20050;-83
2022/11/12 02:46:00;;;;;;;50.65;19.02;;;;;;;3.79;100.00;102793.44;5089369;28;20040;-82
2022/11/12 02:48:25;;;;;;;49.47;18.42;;;;;;;3.64;100.00;102790.09;5077622;28;20028;-83
2022/11/12 02:50:51;;;;;;;43.67;16.60;;;;;;;3.70;100.00;102794.50;5085347;28;20032;-82
2022/11/12 02:53:17;;;;;;;37.40;16.85;;;;;;;3.71;100.00;102793.59;5126247;28;20024;-82
2022/11/12 02:55:43;;;;;;;43.83;18.50;;;;;;;3.80;100.00;102790.69;5099574;28;20031;-80
2022/11/12 02:58:08;;;;;;;42.28;16.85;;;;;;;3.72;100.00;102798.06;5130205;28;20027;-82
2022/11/12 03:00:34;;;;;;;39.58;16.90;;;;;;;3.73;100.00;102796.25;5103196;28;20035;-83
2022/11/12 03:03:00;;;;;;;31.98;15.13;;;;;;;3.75;100.00;102806.13;5099903;28;20060;-82
2022/11/12 03:05:30;;;;;;;43.90;17.73;;;;;;;3.62;100.00;102804.56;5110154;28;20040;-81
2022/11/12 03:07:57;;;;;;;42.58;17.45;;;;;;;3.63;100.00;102801.84;5108265;28;20032;-82
2022/11/12 03:10:27;;;;;;;40.60;17.08;;;;;;;3.70;100.00;102808.03;5087383;28;20038;-83
2022/11/12 03:12:54;;;;;;;33.53;15.70;;;;;;;3.75;100.00;102799.81;5112966;28;20382;-81
2022/11/12 03:15:20;;;;;;;37.92;15.65;;;;;;;3.67;100.00;102802.66;5110226;28;20024;-83
2022/11/12 03:17:46;;;;;;;36.63;14.77;;;;;;;3.64;100.00;102803.63;5076122;28;20053;-83
2022/11/12 03:20:11;;;;;;;43.17;16.15;;;;;;;3.76;100.00;102797.09;5089790;28;20039;-82
2022/11/12 03:22:38;;;;;;;32.05;14.73;;;;;;;3.88;100.00;102798.66;5079757;28;20027;-83
2022/11/12 03:25:05;;;;;;;40.72;16.55;;;;;;;3.69;100.00;102795.44;5101473;28;20046;-83
2022/11/12 03:27:31;;;;;;;32.47;15.65;;;;;;;3.70;100.00;102788.19;5092004;28;20059;-83
2022/11/12 03:29:57;;;;;;;30.00;14.07;;;;;;;3.65;100.00;102770.19;5074049;28;20063;-82
2022/11/12 03:32:23;;;;;;;33.78;14.23;;;;;;;3.66;100.00;102793.66;5060967;28;20027;-83
2022/11/12 03:34:48;;;;;;;33.03;14.32;;;;;;;3.67;100.00;102799.97;5105319;28;20039;-83
2022/11/12 03:37:14;;;;;;;32.35;13.52;;;;;;;3.46;100.00;102799.44;5102194;28;20043;-82
2022/11/12 03:39:41;;;;;;;30.38;13.85;;;;;;;3.44;100.00;102774.22;5108701;28;20091;-82
2022/11/12 03:42:06;;;;;;;33.63;14.55;;;;;;;3.63;100.00;102801.84;5075161;28;20111;-83
2022/11/12 03:44:32;;;;;;;37.28;14.25;;;;;;;3.52;100.00;102795.72;5108837;28;20028;-83
2022/11/12 03:46:57;;;;;;;32.78;14.52;;;;;;;3.36;100.00;102805.03;5105077;28;20104;-83
2022/11/12 03:49:23;;;;;;;26.95;11.90;;;;;;;3.10;100.00;102801.00;5074254;28;20039;-83
2022/11/12 03:51:48;;;;;;;25.38;12.32;;;;;;;3.18;100.00;102809.88;5069992;28;20090;-83
2022/11/12 03:54:14;;;;;;;31.63;15.23;;;;;;;3.12;100.00;102802.72;5079253;28;20120;-82
2022/11/12 03:56:39;;;;;;;26.70;14.52;;;;;;;3.22;100.00;102808.00;5087448;28;20062;-83
2022/11/12 03:59:05;;;;;;;35.03;15.48;;;;;;;3.20;100.00;102799.00;5117886;28;20114;-82
2022/11/12 04:01:30;;;;;;;25.85;14.20;;;;;;;3.23;100.00;102793.53;5126299;28;20444;-82
2022/11/12 04:03:57;;;;;;;28.27;13.82;;;;;;;3.17;100.00;102778.28;5048890;28;20036;-83
2022/11/12 04:09:07;;;;;;;32.13;14.80;;;;;;;3.26;100.00;102785.34;5094775;28;20039;-82
2022/11/12 04:11:32;;;;;;;27.83;13.40;;;;;;;3.37;100.00;102772.53;5108027;28;20080;-83
2022/11/12 04:13:59;;;;;;;36.30;15.00;;;;;;;3.38;100.00;102778.81;5090552;28;20039;-83
2022/11/12 04:22:08;;;;;;;33.28;14.90;;;;;;;3.39;100.00;102780.63;5093489;28;20036;-82
2022/11/12 04:27:30;;;;;;;42.83;16.05;;;;;;;3.35;100.00;102768.97;5126316;28;20091;-83
2022/11/12 04:30:15;;;;;;;35.13;16.55;;;;;;;3.23;100.00;102767.38;5092037;28;20039;-81
2022/11/12 04:32:53;;;;;;;36.22;15.35;;;;;;;3.26;100.00;102769.13;5087410;28;20058;-83
2022/11/12 04:35:20;;;;;;;31.98;15.77;;;;;;;3.18;100.00;102763.84;5089669;28;20036;-82
2022/11/12 04:37:46;;;;;;;24.48;12.35;;;;;;;3.19;100.00;102783.69;5084563;28;20043;-83
2022/11/12 04:45:49;;;;;;;37.08;15.85;;;;;;;3.09;100.00;102775.72;5088455;28;20143;-82
2022/11/12 04:48:15;;;;;;;45.30;16.95;;;;;;;3.17;100.00;102775.59;5087795;28;20039;-82
2022/11/12 04:50:43;;;;;;;37.08;15.88;;;;;;;3.15;100.00;102779.22;5117822;28;20036;-83
2022/11/12 04:53:08;;;;;;;32.65;14.70;;;;;;;3.17;100.00;102780.13;5072597;28;20031;-83
2022/11/12 04:55:53;;;;;;;29.65;14.95;;;;;;;3.19;100.00;102775.56;5091299;28;20058;-83
2022/11/12 04:58:22;;;;;;;31.65;13.85;;;;;;;3.14;100.00;102748.56;5091795;28;21908;-82
2022/11/12 05:00:49;;;;;;;29.52;14.15;;;;;;;3.31;100.00;102767.22;5088619;28;20439;-83
2022/11/12 05:03:16;;;;;;;30.85;13.65;;;;;;;3.13;100.00;102745.00;5103183;28;20034;-84
2022/11/12 05:05:41;;;;;;;33.70;15.23;;;;;;;3.23;100.00;102740.31;5107290;28;20172;-82
2022/11/12 05:08:07;;;;;;;34.78;15.23;;;;;;;3.28;100.00;102768.19;5089529;28;20040;-83
2022/11/12 05:10:33;;;;;;;30.27;14.15;;;;;;;3.19;100.00;102762.91;5086009;28;20063;-83
2022/11/12 05:12:59;;;;;;;35.50;14.98;;;;;;;3.21;100.00;102766.47;5061691;28;20028;-84
2022/11/12 05:15:24;;;;;;;34.55;15.88;;;;;;;3.19;100.00;102757.50;5125397;28;20036;-81
2022/11/12 05:17:51;;;;;;;42.85;16.73;;;;;;;3.24;100.00;102762.84;5089939;28;20036;-82
2022/11/12 05:20:17;;;;;;;41.22;16.77;;;;;;;3.13;100.00;102722.41;5091038;28;20131;-83
2022/11/12 05:22:43;;;;;;;33.47;15.18;;;;;;;3.19;100.00;102752.09;5075310;28;20024;-83
2022/11/12 05:25:09;;;;;;;32.83;14.77;;;;;;;3.11;100.00;102741.38;5086282;28;20028;-82
2022/11/12 05:27:35;;;;;;;42.63;16.45;;;;;;;3.01;100.00;102747.88;5073593;28;20387;-83
2022/11/12 05:30:02;;;;;;;32.05;14.23;;;;;;;3.05;100.00;102749.63;5098266;28;20032;-82
2022/11/12 05:32:28;;;;;;;29.30;15.02;;;;;;;3.08;100.00;102743.25;5080948;28;20059;-82
2022/11/12 05:34:53;;;;;;;36.78;16.73;;;;;;;3.25;100.00;102741.16;5072080;28;20088;-82
2022/11/12 05:37:19;;;;;;;36.28;15.75;;;;;;;3.15;100.00;102739.56;5090123;28;20035;-81
2022/11/12 05:39:44;;;;;;;32.70;17.02;;;;;;;3.05;100.00;102737.91;5089074;28;20047;-83
2022/11/12 05:42:10;;;;;;;37.25;16.98;;;;;;;2.91;100.00;102724.63;5088871;28;20040;-83
2022/11/12 05:44:36;;;;;;;33.92;16.00;;;;;;;2.94;100.00;102732.69;5092708;28;20495;-83
2022/11/12 05:47:01;;;;;;;38.15;16.20;;;;;;;2.95;100.00;102729.03;5087025;28;20412;-83
2022/11/12 05:49:27;;;;;;;39.42;15.73;;;;;;;3.01;100.00;102730.78;5105748;28;20114;-83
2022/11/12 05:51:55;;;;;;;37.80;14.43;;;;;;;2.92;100.00;102731.84;5106526;28;20053;-83
2022/11/12 05:54:23;;;;;;;37.35;15.30;;;;;;;2.98;100.00;102738.94;5071618;28;20035;-82
2022/11/12 05:56:52;;;;;;;35.42;14.90;;;;;;;3.03;100.00;102737.03;5104851;28;20039;-83
2022/11/12 05:59:17;;;;;;;41.00;15.63;;;;;;;3.09;100.00;102734.25;5105197;28;20066;-83
2022/11/12 06:01:43;;;;;;;36.90;14.73;;;;;;;2.84;100.00;102736.47;5086966;28;20039;-83
2022/11/12 06:04:10;;;;;;;25.15;13.45;;;;;;;2.94;100.00;102738.09;5070112;28;20039;-83
2022/11/12 06:06:37;;;;;;;32.17;13.93;;;;;;;2.95;100.00;102742.56;5083542;28;20525;-82
2022/11/12 06:09:03;;;;;;;30.65;13.68;;;;;;;2.88;100.00;102739.06;5086795;28;20121;-83
2022/11/12 06:11:29;;;;;;;35.10;15.02;;;;;;;2.87;100.00;102740.03;5061021;28;20474;-83
2022/11/12 06:13:55;;;;;;;26.27;13.05;;;;;;;2.80;100.00;102734.72;5086285;28;20107;-81
2022/11/12 06:16:20;;;;;;;47.28;16.15;;;;;;;2.73;100.00;102742.94;5091962;28;20036;-81
2022/11/12 06:18:45;;;;;;;39.03;16.13;;;;;;;2.69;100.00;102751.09;5086544;28;20035;-83
2022/11/12 06:21:23;;;;;;;34.53;16.65;;;;;;;2.66;100.00;102741.25;5067376;28;20035;-82
2022/11/12 06:23:52;;;;;;;34.08;16.13;;;;;;;2.68;100.00;102738.53;5074278;28;20032;-82
2022/11/12 06:26:18;;;;;;;42.85;15.05;;;;;;;2.70;100.00;102742.97;5097257;28;20032;-84
2022/11/12 06:28:47;;;;;;;36.92;14.30;;;;;;;2.71;100.00;102731.25;5088769;28;20032;-83
2022/11/12 06:31:13;;;;;;;35.17;14.77;;;;;;;2.86;100.00;102759.84;5091564;28;20054;-82
2022/11/12 06:33:39;;;;;;;38.08;14.40;;;;;;;2.75;100.00;102756.44;5106539;28;20046;-79
2022/11/12 06:36:09;;;;;;;35.72;14.70;;;;;;;2.67;100.00;102755.66;5106760;28;20031;-80
2022/11/12 06:38:40;;;;;;;41.50;14.82;;;;;;;2.69;100.00;102753.81;5090940;28;20042;-82
2022/11/12 06:41:07;;;;;;;39.53;13.02;;;;;;;2.83;100.00;102742.78;5092427;28;20510;-82
2022/11/12 06:43:33;;;;;;;35.45;13.15;;;;;;;2.78;100.00;102744.69;5090778;28;20084;-81
2022/11/12 06:46:14;;;;;;;29.48;14.02;;;;;;;2.77;100.00;102754.59;5089833;28;20039;-82
2022/11/12 06:48:41;;;;;;;36.03;13.73;;;;;;;2.85;100.00;102762.59;5098580;28;20045;-82
2022/11/12 06:51:24;;;;;;;35.15;13.30;;;;;;;2.82;100.00;102754.50;5093059;28;20096;-81
2022/11/12 06:53:50;;;;;;;33.95;14.15;;;;;;;2.74;100.00;102755.53;5094061;28;20471;-82
2022/11/12 06:56:16;;;;;;;36.20;14.15;;;;;;;2.72;100.00;102765.50;5096196;28;20054;-83
2022/11/12 06:58:42;;;;;;;39.38;15.00;;;;;;;2.75;100.00;102780.78;5073909;28;20095;-85
2022/11/12 07:01:14;;;;;;;41.05;14.63;;;;;;;2.69;100.00;102779.06;5100045;28;20540;-81
2022/11/12 07:03:42;;;;;;;38.25;15.50;;;;;;;2.69;100.00;102776.38;5096128;28;20118;-82
2022/11/12 07:06:13;;;;;;;30.25;13.63;;;;;;;2.62;100.00;102765.66;5091931;28;20095;-82
2022/11/12 07:08:39;;;;;;;32.08;15.68;;;;;;;2.75;100.00;102781.69;5100019;28;20142;-84
2022/11/12 07:11:06;;;;;;;42.65;14.98;;;;;;;2.91;100.00;102778.72;5078081;28;20034;-82
2022/11/12 07:13:33;;;;;;;35.15;14.38;;;;;;;2.98;100.00;102771.41;5073328;28;20024;-83
2022/11/12 07:16:00;;;;;;;40.13;15.73;;;;;;;3.04;100.00;102769.50;5092860;28;20050;-83
2022/11/12 07:18:27;;;;;;;43.55;15.73;;;;;;;3.07;100.00;102777.56;5115357;28;20031;-83
2022/11/12 07:21:04;;;;;;;37.20;16.30;;;;;;;3.06;100.00;102781.16;5112917;28;20032;-83
2022/11/12 07:23:31;;;;;;;38.70;14.77;;;;;;;3.21;100.00;102771.91;5104931;28;20074;-83
2022/11/12 07:25:59;;;;;;;37.08;15.15;;;;;;;3.13;100.00;102782.88;5107078;28;20019;-82
2022/11/12 07:28:25;;;;;;;36.70;14.85;;;;;;;3.21;100.00;102781.84;5094520;28;20023;-83
2022/11/12 07:31:00;;;;;;;29.80;13.93;;;;;;;3.29;100.00;102775.38;5095990;28;20031;-82
2022/11/12 07:33:27;;;;;;;34.22;14.77;;;;;;;3.43;100.00;102776.97;5114205;28;20116;-81
2022/11/12 07:36:13;;;;;;;42.53;15.55;;;;;;;3.37;100.00;102788.78;5111263;28;20099;-83
2022/11/12 07:38:42;;;;;;;32.33;15.32;;;;;;;3.52;100.00;102782.19;5092353;28;20115;-82
2022/11/12 07:41:20;;;;;;;42.75;17.90;;;;;;;3.55;100.00;102778.53;5083919;28;20036;-82
2022/11/12 07:43:48;;;;;;;40.03;18.70;;;;;;;3.66;100.00;102769.28;5088428;28;20044;-82
2022/11/12 07:46:16;;;;;;;41.25;18.17;;;;;;;3.92;100.00;102783.22;5088507;28;20051;-82
2022/11/12 07:48:43;;;;;;;40.80;18.13;;;;;;;3.81;100.00;102749.13;5093768;28;20023;-82
2022/11/12 07:51:23;;;;;;;46.00;17.17;;;;;;;4.01;100.00;102781.22;5080403;28;20024;-83
2022/11/12 07:53:51;;;;;;;46.13;18.23;;;;;;;4.16;100.00;102782.72;5074169;28;20035;-82
2022/11/12 07:56:20;;;;;;;47.75;20.75;;;;;;;4.19;100.00;102779.94;5102714;28;20050;-83
2022/11/12 07:58:49;;;;;;;43.58;18.05;;;;;;;4.53;100.00;102776.50;5090262;28;20059;-83
2022/11/12 08:01:30;;;;;;;42.25;17.10;;;;;;;4.45;100.00;102785.75;5106535;28;20040;-81
2022/11/12 08:03:56;;;;;;;40.15;17.40;;;;;;;4.72;100.00;102789.63;5078110;28;20040;-82
2022/11/12 08:06:22;;;;;;;43.25;17.65;;;;;;;4.75;100.00;102793.16;5091374;28;20031;-82
2022/11/12 08:08:51;;;;;;;37.35;16.38;;;;;;;4.82;100.00;102796.66;5090529;28;20096;-81
2022/11/12 08:11:17;;;;;;;51.60;17.20;;;;;;;4.94;100.00;102792.75;5116057;28;20047;-82
2022/11/12 08:13:42;;;;;;;34.30;17.30;;;;;;;5.12;100.00;102795.00;5070858;28;20100;-83
2022/11/12 08:16:08;;;;;;;42.40;20.05;;;;;;;5.17;100.00;102785.88;5103860;28;20050;-82
2022/11/12 08:18:34;;;;;;;36.67;18.60;;;;;;;5.32;100.00;102791.78;5074384;28;20040;-83
2022/11/12 08:21:00;;;;;;;49.78;19.48;;;;;;;5.46;100.00;102801.38;5103167;28;20414;-83
2022/11/12 08:23:28;;;;;;;42.47;19.17;;;;;;;5.46;100.00;102793.25;5074546;28;20039;-83
2022/11/12 08:25:58;;;;;;;40.33;19.38;;;;;;;5.61;100.00;102795.56;5099285;28;20048;-82
2022/11/12 08:28:24;;;;;;;42.85;19.77;;;;;;;5.64;100.00;102790.06;5088963;28;20398;-82
2022/11/12 08:30:50;;;;;;;47.95;20.50;;;;;;;5.82;100.00;102795.91;5090126;28;20122;-82
2022/11/12 08:33:15;;;;;;;36.17;20.70;;;;;;;5.73;100.00;102794.34;5074578;28;20035;-82
2022/11/12 08:35:41;;;;;;;32.83;18.75;;;;;;;5.77;100.00;102776.09;5091344;28;20542;-82
2022/11/12 08:38:09;;;;;;;44.88;20.35;;;;;;;5.92;100.00;102793.81;5084815;28;20047;-82
2022/11/12 08:40:35;;;;;;;49.10;21.00;;;;;;;6.19;100.00;102797.63;5106920;28;20019;-82
2022/11/12 08:43:04;;;;;;;47.58;19.63;;;;;;;6.37;100.00;102797.06;5103974;28;20128;-82
2022/11/12 08:45:32;;;;;;;35.90;17.92;;;;;;;6.58;100.00;102789.19;5106041;28;20064;-84
2022/11/12 08:48:02;;;;;;;31.23;16.40;;;;;;;6.74;100.00;102768.72;5086926;28;20035;-82
2022/11/12 08:50:34;;;;;;;38.20;15.77;;;;;;;7.03;100.00;102793.19;5085487;28;20036;-81
2022/11/12 08:53:01;;;;;;;37.80;16.02;;;;;;;6.90;100.00;102784.53;5086528;28;20050;-80
2022/11/12 08:55:33;;;;;;;32.15;14.55;;;;;;;7.18;100.00;102809.03;5086359;28;20035;-81
2022/11/12 08:58:01;;;;;;;31.17;13.87;;;;;;;7.38;100.00;102800.19;5086347;28;20036;-81
2022/11/12 09:00:29;;;;;;;23.02;13.90;;;;;;;7.37;100.00;102814.75;5086239;28;20141;-82
2022/11/12 09:02:55;;;;;;;29.77;13.68;;;;;;;7.33;100.00;102802.19;5103450;28;20035;-82
2022/11/12 09:05:20;;;;;;;27.65;13.15;;;;;;;7.53;100.00;102812.41;5085539;28;20028;-82
2022/11/12 09:07:46;;;;;;;24.40;13.18;;;;;;;7.87;100.00;102811.19;5086472;28;20070;-82
2022/11/12 09:10:12;;;;;;;24.27;12.90;;;;;;;8.41;100.00;102809.19;5069412;28;20511;-83
2022/11/12 09:12:37;;;;;;;22.83;11.85;;;;;;;8.62;100.00;102802.94;5103697;28;20032;-82
2022/11/12 09:15:05;;;;;;;33.67;15.48;;;;;;;8.89;100.00;102799.16;5103049;28;20028;-83
2022/11/12 09:17:31;;;;;;;32.00;15.05;;;;;;;9.47;100.00;102807.66;5080230;28;20036;-82
2022/11/12 09:19:57;;;;;;;29.80;16.25;;;;;;;9.42;100.00;102808.81;5098915;28;20024;-83
2022/11/12 09:22:22;;;;;;;26.50;14.90;;;;;;;9.72;100.00;102812.97;5086101;28;20035;-82
2022/11/12 09:24:47;;;;;;;34.55;16.15;;;;;;;9.54;100.00;102809.19;5068706;28;20024;-83
2022/11/12 09:27:13;;;;;;;32.30;16.67;;;;;;;9.52;100.00;102821.13;5065612;28;20111;-82
2022/11/12 09:29:38;;;;;;;35.53;16.48;;;;;;;9.66;100.00;102815.94;5039214;28;20128;-83
2022/11/12 09:32:04;;;;;;;26.25;15.07;;;;;;;9.88;100.00;102793.09;5040724;28;20036;-84
2022/11/12 09:34:32;;;;;;;23.73;12.02;;;;;;;10.28;100.00;102804.97;5050291;28;20039;-82
2022/11/12 09:36:58;;;;;;;20.00;12.20;;;;;;;10.12;100.00;102827.56;5070452;28;20032;-83
2022/11/12 09:39:24;;;;;;;18.50;11.20;;;;;;;10.44;100.00;102824.34;5073954;28;20028;-82
2022/11/12 09:41:49;;;;;;;19.67;10.93;;;;;;;10.74;100.00;102818.34;5051545;28;20051;-82
2022/11/12 09:44:19;;;;;;;15.82;9.48;;;;;;;10.01;100.00;102823.56;5053023;28;20043;-82
2022/11/12 09:47:14;;;;;;;26.77;11.82;;;;;;;9.98;100.00;102812.75;5082600;28;20032;-82
2022/11/12 09:49:46;;;;;;;16.17;9.50;;;;;;;9.78;100.00;102811.78;5086858;28;20061;-82
2022/11/12 09:52:24;;;;;;;22.75;10.57;;;;;;;9.88;100.00;102817.72;5087251;28;20033;-83
2022/11/12 09:55:11;;;;;;;19.63;10.43;;;;;;;9.98;100.00;102812.75;5102266;28;20024;-83
2022/11/12 09:57:39;;;;;;;17.08;9.63;;;;;;;10.24;100.00;102817.03;5096756;28;20100;-82
2022/11/12 10:00:31;;;;;;;22.00;9.50;;;;;;;10.90;100.00;102819.38;5081179;28;20032;-83
2022/11/12 10:03:06;;;;;;;17.15;8.98;;;;;;;10.68;100.00;102816.81;5081447;28;20056;-82
2022/11/12 10:05:51;;;;;;;16.90;9.60;;;;;;;11.09;100.00;102822.13;5100108;28;20028;-84
2022/11/12 10:08:37;;;;;;;19.98;9.77;;;;;;;10.80;100.00;102818.94;5097192;28;20395;-82
2022/11/12 10:11:23;;;;;;;20.83;9.43;;;;;;;10.94;100.00;102817.41;5080745;28;20063;-84
2022/11/12 10:14:20;;;;;;;19.77;9.55;;;;;;;11.23;100.00;102824.16;5074356;28;20059;-83
2022/11/12 10:17:03;;;;;;;19.55;10.73;;;;;;;11.08;100.00;102819.47;5082262;28;20062;-85
2022/11/12 10:19:57;;;;;;;19.40;10.88;;;;;;;11.22;100.00;102816.91;5080859;28;20051;-84
2022/11/12 10:22:41;;;;;;;24.10;10.52;;;;;;;11.17;100.00;102813.53;5065271;28;20075;-82
2022/11/12 10:25:18;;;;;;;19.75;11.00;;;;;;;11.30;100.00;102809.19;5082087;28;20092;-84
2022/11/12 10:27:45;;;;;;;22.52;10.93;;;;;;;11.53;100.00;102810.75;5062327;28;20031;-83
2022/11/12 10:30:23;;;;;;;19.25;11.25;;;;;;;11.63;100.00;102802.06;5099193;28;20051;-82
2022/11/12 10:32:50;;;;;;;34.17;14.68;;;;;;;11.26;100.00;102803.94;5083344;28;20033;-83
2022/11/12 10:35:19;;;;;;;44.92;19.67;;;;;;;11.49;100.00;102784.44;5065581;28;20024;-83
2022/11/12 10:37:57;;;;;;;37.30;16.80;;;;;;;11.56;100.00;102796.88;5065070;28;20111;-81
2022/11/12 10:40:36;;;;;;;29.17;13.43;;;;;;;11.64;100.00;102793.75;5096173;28;20089;-82
2022/11/12 10:43:15;;;;;;;35.85;16.80;;;;;;;11.96;100.00;102804.91;5098530;28;20134;-81
2022/11/12 10:45:42;;;;;;;47.72;18.48;;;;;;;12.32;100.00;102790.13;5101548;28;20115;-83
2022/11/12 10:48:27;;;;;;;30.08;15.20;;;;;;;12.16;100.00;102789.19;5084484;28;20036;-82
2022/11/12 10:50:53;;;;;;;24.80;13.60;;;;;;;12.16;100.00;102795.56;5102797;28;20056;-84
2022/11/12 10:53:45;;;;;;;32.08;15.45;;;;;;;12.03;100.00;102789.84;5083898;28;20032;-85
2022/11/12 10:56:30;;;;;;;61.03;21.45;;;;;;;12.20;100.00;102788.97;5063211;28;20093;-84
2022/11/12 10:59:15;;;;;;;30.10;15.35;;;;;;;12.41;100.00;102786.88;5071412;28;20113;-84
2022/11/12 11:01:43;;;;;;;29.30;15.23;;;;;;;12.58;100.00;102785.03;5065609;28;20024;-85
2022/11/12 11:04:25;;;;;;;31.73;15.65;;;;;;;12.36;100.00;102779.84;5083779;28;20426;-85
2022/11/12 11:07:16;;;;;;;48.33;19.60;;;;;;;12.40;100.00;102757.63;5082558;28;20447;-85
2022/11/12 11:09:56;;;;;;;53.25;21.77;;;;;;;12.73;100.00;102772.28;5095912;28;20105;-84
2022/11/12 11:12:25;;;;;;;29.60;12.30;;;;;;;12.73;100.00;102781.41;5101392;28;20090;-85
2022/11/12 11:15:17;;;;;;;20.52;11.02;;;;;;;12.46;100.00;102782.00;5082442;28;20104;-85
2022/11/12 11:17:42;;;;;;;25.63;12.45;;;;;;;12.75;100.00;102770.31;5084754;28;20039;-85
2022/11/12 11:20:23;;;;;;;33.95;15.65;;;;;;;12.77;100.00;102768.38;5106068;28;20032;-86
2022/11/12 11:23:11;;;;;;;58.28;21.58;;;;;;;12.82;100.00;102774.47;5122508;28;20040;-85
2022/11/12 11:25:38;;;;;;;40.70;16.42;;;;;;;12.74;100.00;102758.47;5102846;28;20040;-85
2022/11/12 11:28:31;;;;;;;37.03;14.82;;;;;;;12.90;100.00;102766.69;5072984;28;20506;-87
2022/11/12 11:31:25;;;;;;;24.60;12.77;;;;;;;12.72;100.00;102754.88;5091118;28;20069;-85
2022/11/12 11:34:05;;;;;;;28.17;13.23;;;;;;;12.86;100.00;102754.09;5088192;28;20032;-87
2022/11/12 11:36:40;;;;;;;27.55;12.65;;;;;;;12.93;100.00;102754.63;5089100;28;20376;-86